createdAt,value
2018-11-04T00:01:53.021Z,94.95
2018-11-04T00:04:21.305Z,95.29
2018-11-04T00:06:49.582Z,94.66
2018-11-04T00:09:17.865Z,95.37
2018-11-04T00:11:46.621Z,94.77
2018-11-04T00:14:14.897Z,94.75
2018-11-04T00:16:43.139Z,93.73
2018-11-04T00:19:11.414Z,93.03
2018-11-04T00:21:39.657Z,93.65
2018-11-04T00:24:07.997Z,93.63
2018-11-04T00:26:36.178Z,94.76
2018-11-04T00:29:04.473Z,94.05
2018-11-04T00:31:32.719Z,94.70
2018-11-04T00:34:01.001Z,95.19
2018-11-04T00:36:29.270Z,95.89
2018-11-04T00:38:57.530Z,94.50
2018-11-04T00:41:25.920Z,94.77
2018-11-04T00:43:54.217Z,95.18
2018-11-04T00:46:22.498Z,95.03
2018-11-04T00:48:50.826Z,95.45
2018-11-04T00:51:19.074Z,94.86
2018-11-04T00:53:48.406Z,94.82
2018-11-04T00:56:16.636Z,94.32
2018-11-04T00:58:45.060Z,94.23
2018-11-04T01:01:13.299Z,95.38
2018-11-04T01:03:41.691Z,94.87
2018-11-04T01:06:09.949Z,94.38
2018-11-04T01:08:38.193Z,94.62
2018-11-04T01:11:06.458Z,94.68
2018-11-04T01:13:35.317Z,93.41
2018-11-04T01:16:03.737Z,93.47
2018-11-04T01:18:32.089Z,94.51
2018-11-04T01:21:00.389Z,93.19
2018-11-04T01:23:28.603Z,93.13
2018-11-04T01:25:56.887Z,93.94
2018-11-04T01:28:25.120Z,92.44
2018-11-04T01:30:53.413Z,93.55
2018-11-04T01:33:21.657Z,94.02
2018-11-04T01:35:49.937Z,94.28
2018-11-04T01:38:18.198Z,94.43
2018-11-04T01:40:46.446Z,94.86
2018-11-04T01:43:14.683Z,94.59
2018-11-04T01:45:42.968Z,94.31
2018-11-04T01:48:11.220Z,94.20
2018-11-04T01:57:33.599Z,96.69
2018-11-04T02:00:01.928Z,96.66
2018-11-04T02:02:30.262Z,95.75
2018-11-04T02:04:58.706Z,95.30
2018-11-04T02:07:27.034Z,95.40
2018-11-04T02:09:55.344Z,95.33
2018-11-04T02:12:23.786Z,95.23
2018-11-04T02:14:52.082Z,95.11
2018-11-04T02:17:20.973Z,94.78
2018-11-04T02:19:49.375Z,94.18
2018-11-04T02:22:17.758Z,94.32
2018-11-04T02:24:46.083Z,93.99
2018-11-04T02:27:14.426Z,93.39
2018-11-04T02:29:42.698Z,94.17
2018-11-04T02:32:11.014Z,94.62
2018-11-04T02:34:39.339Z,94.48
2018-11-04T02:37:07.889Z,93.84
2018-11-04T02:39:36.198Z,94.17
2018-11-04T02:42:04.845Z,94.31
2018-11-04T02:44:33.156Z,94.06
2018-11-04T02:47:01.595Z,94.63
2018-11-04T02:49:29.792Z,94.98
2018-11-04T02:51:58.195Z,95.94
2018-11-04T02:54:26.504Z,95.79
2018-11-04T02:56:54.885Z,96.64
2018-11-04T02:59:23.185Z,94.96
2018-11-04T03:01:51.569Z,94.36
2018-11-04T03:04:19.834Z,94.77
2018-11-04T03:06:48.165Z,94.03
2018-11-04T03:09:16.468Z,94.65
2018-11-04T03:11:44.801Z,94.55
2018-11-04T03:14:13.157Z,93.68
2018-11-04T03:16:41.496Z,94.32
2018-11-04T03:19:09.798Z,93.89
2018-11-04T03:21:38.082Z,95.02
2018-11-04T03:24:06.603Z,94.79
2018-11-04T03:26:34.930Z,94.54
2018-11-04T03:29:03.305Z,93.90
2018-11-04T03:31:31.679Z,94.12
2018-11-04T03:33:59.980Z,94.00
2018-11-04T03:36:28.340Z,95.29
2018-11-04T03:38:56.747Z,93.92
2018-11-04T03:41:25.104Z,94.09
2018-11-04T03:43:53.490Z,93.88
2018-11-04T03:46:21.799Z,94.30
2018-11-04T03:48:50.136Z,94.65
2018-11-04T03:51:18.459Z,95.03
2018-11-04T03:53:46.778Z,94.48
2018-11-04T03:56:15.083Z,93.94
2018-11-04T03:58:43.382Z,93.49
2018-11-04T04:01:11.790Z,94.37
2018-11-04T04:03:40.128Z,94.77
2018-11-04T04:06:08.453Z,93.30
2018-11-04T04:08:36.761Z,94.04
2018-11-04T04:11:05.272Z,95.07
2018-11-04T04:13:33.617Z,94.58
2018-11-04T04:16:01.981Z,95.63
2018-11-04T04:18:30.309Z,96.30
2018-11-04T04:21:03.683Z,95.39
2018-11-04T04:23:32.099Z,94.68
2018-11-04T04:26:00.422Z,96.16
2018-11-04T04:28:28.746Z,96.28
2018-11-04T04:30:57.057Z,95.57
2018-11-04T04:33:25.515Z,95.16
2018-11-04T04:35:53.844Z,95.72
2018-11-04T04:38:22.388Z,95.11
2018-11-04T04:40:50.767Z,95.24
2018-11-04T04:43:19.159Z,96.53
2018-11-04T04:45:47.923Z,96.40
2018-11-04T04:48:16.239Z,96.80
2018-11-04T04:50:44.588Z,95.84
2018-11-04T04:53:12.891Z,95.16
2018-11-04T04:55:41.231Z,95.93
2018-11-04T04:58:09.682Z,96.88
2018-11-04T05:00:37.998Z,97.36
2018-11-04T05:03:06.507Z,96.57
2018-11-04T05:05:34.820Z,96.09
2018-11-04T05:08:03.193Z,94.84
2018-11-04T05:10:31.515Z,95.75
2018-11-04T05:12:59.870Z,96.75
2018-11-04T05:15:28.172Z,97.95
2018-11-04T05:17:56.625Z,96.88
2018-11-04T05:20:25.071Z,95.47
2018-11-04T05:22:53.407Z,95.30
2018-11-04T05:25:21.714Z,96.23
2018-11-04T05:27:49.988Z,96.83
2018-11-04T05:30:18.362Z,97.77
2018-11-04T05:32:46.690Z,97.84
2018-11-04T05:35:14.985Z,98.63
2018-11-04T05:37:43.325Z,99.66
2018-11-04T05:40:11.625Z,99.56
2018-11-04T05:42:40.020Z,99.01
2018-11-04T05:45:08.578Z,98.50
2018-11-04T05:47:36.859Z,98.00
2018-11-04T05:50:06.141Z,98.50
2018-11-04T05:52:34.746Z,98.30
2018-11-04T05:55:03.128Z,97.73
2018-11-04T05:57:31.443Z,98.07
2018-11-04T05:59:59.832Z,97.25
2018-11-04T06:02:28.228Z,98.05
2018-11-04T06:04:56.654Z,97.84
2018-11-04T06:07:24.931Z,97.62
2018-11-04T06:09:53.262Z,97.84
2018-11-04T06:12:21.580Z,98.14
2018-11-04T06:14:49.999Z,97.98
2018-11-04T06:17:18.294Z,98.86
2018-11-04T06:19:46.607Z,98.83
2018-11-04T06:22:15.067Z,98.31
2018-11-04T06:24:43.399Z,98.12
2018-11-04T06:27:11.758Z,98.45
2018-11-04T06:29:40.047Z,98.17
2018-11-04T06:32:08.459Z,98.67
2018-11-04T06:34:36.868Z,98.96
2018-11-04T06:37:05.439Z,99.96
2018-11-04T06:39:33.759Z,99.76
2018-11-04T06:42:02.166Z,99.70
2018-11-04T06:44:30.631Z,100.00
2018-11-04T06:46:59.148Z,100.00
2018-11-04T06:49:27.502Z,100.00
2018-11-04T06:51:55.880Z,100.00
2018-11-04T06:54:24.871Z,100.00
2018-11-04T06:56:53.246Z,99.20
2018-11-04T06:59:22.469Z,98.43
2018-11-04T07:01:50.833Z,98.47
2018-11-04T07:04:21.694Z,97.78
2018-11-04T07:06:51.108Z,97.33
2018-11-04T07:09:19.684Z,97.21
2018-11-04T07:11:49.284Z,96.74
2018-11-04T07:14:18.510Z,97.14
2018-11-04T07:16:47.129Z,97.63
2018-11-04T07:19:15.978Z,97.29
2018-11-04T07:21:45.183Z,97.04
2018-11-04T07:24:13.638Z,97.29
2018-11-04T07:26:42.165Z,97.76
2018-11-04T07:29:10.695Z,96.71
2018-11-04T07:31:39.334Z,97.01
2018-11-04T07:34:08.072Z,96.57
2018-11-04T07:36:36.431Z,96.45
2018-11-04T07:39:10.039Z,97.11
2018-11-04T07:41:38.506Z,97.67
2018-11-04T07:44:07.396Z,96.95
2018-11-04T07:46:36.559Z,97.24
2018-11-04T07:49:05.338Z,98.11
2018-11-04T07:51:33.762Z,97.97
2018-11-04T07:54:01.960Z,98.03
2018-11-04T07:56:30.266Z,98.42
2018-11-04T07:58:58.598Z,97.77
2018-11-04T08:01:26.971Z,98.18
2018-11-04T08:03:55.363Z,98.09
2018-11-04T08:06:23.728Z,98.20
2018-11-04T08:08:52.090Z,97.83
2018-11-04T08:11:20.467Z,98.77
2018-11-04T08:13:48.786Z,98.22
2018-11-04T08:16:17.218Z,97.99
2018-11-04T08:18:45.555Z,97.95
2018-11-04T08:21:13.934Z,98.12
2018-11-04T08:23:42.238Z,98.01
2018-11-04T08:26:10.684Z,97.86
2018-11-04T08:28:39.039Z,97.30
2018-11-04T08:31:07.331Z,97.45
2018-11-04T08:33:35.705Z,96.94
2018-11-04T08:36:04.087Z,97.31
2018-11-04T08:38:32.407Z,97.94
2018-11-04T08:41:00.738Z,97.44
2018-11-04T08:43:29.061Z,96.73
2018-11-04T08:45:57.493Z,95.67
2018-11-04T08:48:25.684Z,96.08
2018-11-04T08:50:54.027Z,95.02
2018-11-04T08:53:22.696Z,94.29
2018-11-04T08:55:51.149Z,94.86
2018-11-04T08:58:19.443Z,96.23
2018-11-04T09:00:47.758Z,94.99
2018-11-04T09:03:16.051Z,95.70
2018-11-04T09:05:44.402Z,95.49
2018-11-04T09:08:12.714Z,95.53
2018-11-04T09:10:41.028Z,95.68
2018-11-04T09:13:09.399Z,95.95
2018-11-04T09:15:37.810Z,95.89
2018-11-04T09:18:06.443Z,95.33
2018-11-04T09:20:34.780Z,95.53
2018-11-04T09:23:03.162Z,96.14
2018-11-04T09:25:31.486Z,95.67
2018-11-04T09:27:59.906Z,95.26
2018-11-04T09:30:28.240Z,95.68
2018-11-04T09:33:37.112Z,95.68
2018-11-04T09:36:07.356Z,95.72
2018-11-04T09:38:36.996Z,95.31
2018-11-04T09:41:07.068Z,93.94
2018-11-04T09:43:36.756Z,94.90
2018-11-04T09:46:05.524Z,94.46
2018-11-04T09:48:34.255Z,95.19
2018-11-04T09:51:03.758Z,95.39
2018-11-04T09:53:34.719Z,94.85
2018-11-04T09:58:41.573Z,95.24
2018-11-04T10:01:16.797Z,95.10
2018-11-04T10:03:50.733Z,94.90
2018-11-04T10:06:24.562Z,95.43
2018-11-04T10:14:39.344Z,95.88
2018-11-04T10:17:16.359Z,95.50
2018-11-04T10:19:45.903Z,95.85
2018-11-04T10:22:17.317Z,94.60
2018-11-04T10:25:05.338Z,95.12
2018-11-04T10:33:24.971Z,96.09
2018-11-04T10:39:13.481Z,95.88
2018-11-04T10:41:45.589Z,95.75
2018-11-04T10:44:14.209Z,95.11
2018-11-04T10:46:42.817Z,95.27
2018-11-04T10:49:11.315Z,95.40
2018-11-04T10:51:39.995Z,95.16
2018-11-04T10:54:08.284Z,94.84
2018-11-04T10:56:37.003Z,95.02
2018-11-04T10:59:05.994Z,94.14
2018-11-04T11:01:34.682Z,94.79
2018-11-04T11:04:03.004Z,94.10
2018-11-04T11:06:31.346Z,93.91
2018-11-04T11:08:59.679Z,95.42
2018-11-04T11:11:28.104Z,95.12
2018-11-04T11:13:56.421Z,95.13
2018-11-04T11:16:24.811Z,95.41
2018-11-04T11:18:53.160Z,95.18
2018-11-04T11:21:21.718Z,94.65
2018-11-04T11:23:50.070Z,93.08
2018-11-04T11:26:18.361Z,92.25
2018-11-04T11:28:46.828Z,92.26
2018-11-04T11:31:15.161Z,93.24
2018-11-04T11:33:43.520Z,92.71
2018-11-04T11:36:11.919Z,94.02
2018-11-04T11:38:40.537Z,94.37
2018-11-04T11:41:08.936Z,94.21
2018-11-04T11:43:37.265Z,93.93
2018-11-04T11:46:06.113Z,93.66
2018-11-04T11:48:34.443Z,93.69
2018-11-04T11:51:02.764Z,93.57
2018-11-04T11:53:31.123Z,94.95
2018-11-04T11:55:59.469Z,95.26
2018-11-04T11:58:28.891Z,95.56
2018-11-04T12:00:57.223Z,95.61
2018-11-04T12:03:25.523Z,95.57
2018-11-04T12:05:53.924Z,95.47
2018-11-04T12:08:22.261Z,96.14
2018-11-04T12:10:50.565Z,95.92
2018-11-04T12:13:18.895Z,95.28
2018-11-04T12:15:47.288Z,95.32
2018-11-04T12:18:15.644Z,95.07
2018-11-04T12:20:43.988Z,95.05
2018-11-04T12:23:12.319Z,94.96
2018-11-04T12:25:40.679Z,94.73
2018-11-04T12:28:09.065Z,93.91
2018-11-04T12:30:37.385Z,94.67
2018-11-04T12:33:05.775Z,94.61
2018-11-04T12:35:34.106Z,94.55
2018-11-04T12:38:02.499Z,93.94
2018-11-04T12:40:30.882Z,94.35
2018-11-04T12:42:59.184Z,94.60
2018-11-04T12:45:27.534Z,94.29
2018-11-04T12:47:55.983Z,94.47
2018-11-04T12:50:24.262Z,94.36
2018-11-04T12:52:52.578Z,93.97
2018-11-04T12:55:20.870Z,93.97
2018-11-04T12:57:49.203Z,93.68
2018-11-04T13:00:17.602Z,93.48
2018-11-04T13:02:46.180Z,93.60
2018-11-04T13:05:14.508Z,93.33
2018-11-04T13:07:48.094Z,93.38
2018-11-04T13:10:54.168Z,93.41
2018-11-04T13:13:23.066Z,92.77
2018-11-04T13:15:51.442Z,92.75
2018-11-04T13:18:19.782Z,91.47
2018-11-04T13:20:48.191Z,90.18
2018-11-04T13:23:16.654Z,89.97
2018-11-04T13:25:45.030Z,91.44
2018-11-04T13:28:13.354Z,91.82
2018-11-04T13:30:41.671Z,91.89
2018-11-04T13:33:10.048Z,92.18
2018-11-04T13:35:38.379Z,92.17
2018-11-04T13:38:06.813Z,92.67
2018-11-04T13:40:35.121Z,92.97
2018-11-04T13:43:03.499Z,93.26
2018-11-04T13:45:31.847Z,93.32
2018-11-04T13:48:00.220Z,92.99
2018-11-04T13:50:28.882Z,93.54
2018-11-04T13:52:58.323Z,93.59
2018-11-04T13:55:26.642Z,93.51
2018-11-04T13:57:55.111Z,93.67
2018-11-04T14:00:23.436Z,93.67
2018-11-04T14:02:51.795Z,93.41
2018-11-04T14:05:20.127Z,93.37
2018-11-04T14:07:48.410Z,93.76
2018-11-04T14:10:17.175Z,93.63
2018-11-04T14:12:46.117Z,93.82
2018-11-04T14:15:15.940Z,94.00
2018-11-04T14:17:44.309Z,93.51
2018-11-04T14:20:13.359Z,93.21
2018-11-04T14:22:42.127Z,93.78
2018-11-04T14:25:11.457Z,93.94
2018-11-04T14:27:39.797Z,93.96
2018-11-04T14:30:10.259Z,93.87
2018-11-04T14:32:38.546Z,93.92
2018-11-04T14:35:08.045Z,94.06
2018-11-04T14:37:56.476Z,93.40
2018-11-04T14:40:28.472Z,93.56
2018-11-04T14:42:56.832Z,93.38
2018-11-04T14:45:25.257Z,92.72
2018-11-04T14:47:53.574Z,92.47
2018-11-04T14:50:21.907Z,92.34
2018-11-04T14:52:50.303Z,92.08
2018-11-04T14:55:18.571Z,92.08
2018-11-04T14:57:46.866Z,92.10
2018-11-04T15:00:16.299Z,92.22
2018-11-04T15:02:44.768Z,92.10
2018-11-04T15:05:13.142Z,92.11
2018-11-04T15:07:41.671Z,92.00
2018-11-04T15:10:12.350Z,92.19
2018-11-04T15:12:40.831Z,92.36
2018-11-04T15:15:11.706Z,91.90
2018-11-04T15:17:40.418Z,92.10
2018-11-04T15:20:09.644Z,92.19
2018-11-04T15:22:41.885Z,92.54
2018-11-04T15:25:10.211Z,92.44
2018-11-04T15:27:38.548Z,92.43
2018-11-04T15:30:08.062Z,92.62
2018-11-04T15:32:36.551Z,92.44
2018-11-04T15:35:05.618Z,92.15
2018-11-04T15:37:34.138Z,92.55
2018-11-04T15:40:02.513Z,92.25
2018-11-04T15:42:30.836Z,92.78
2018-11-04T15:44:59.189Z,92.34
2018-11-04T15:47:27.645Z,92.81
2018-11-04T15:49:56.035Z,92.78
2018-11-04T15:52:24.394Z,92.81
2018-11-04T15:54:52.789Z,92.76
2018-11-04T15:57:21.206Z,93.00
2018-11-04T15:59:49.626Z,93.11
2018-11-04T16:02:18.053Z,93.33
2018-11-04T16:04:46.461Z,93.47
2018-11-04T16:07:14.810Z,93.87
2018-11-04T16:09:43.297Z,93.53
2018-11-04T16:12:12.498Z,94.50
2018-11-04T16:14:41.127Z,93.98
2018-11-04T16:17:09.411Z,94.16
2018-11-04T16:19:37.831Z,94.10
2018-11-04T16:22:06.178Z,93.95
2018-11-04T16:24:34.921Z,94.15
2018-11-04T16:27:03.744Z,94.03
2018-11-04T16:29:32.313Z,94.71
2018-11-04T16:32:00.941Z,94.58
2018-11-04T16:34:31.403Z,94.54
2018-11-04T16:37:31.583Z,94.88
2018-11-04T16:40:00.819Z,94.51
2018-11-04T16:42:29.139Z,94.80
2018-11-04T16:44:57.603Z,94.70
2018-11-04T16:47:25.966Z,94.16
2018-11-04T16:49:54.349Z,94.60
2018-11-04T16:52:22.686Z,94.57
2018-11-04T16:54:51.111Z,94.74
2018-11-04T16:57:19.500Z,94.90
2018-11-04T16:59:47.954Z,94.90
2018-11-04T17:02:16.278Z,94.75
2018-11-04T17:04:44.818Z,94.88
2018-11-04T17:07:13.067Z,94.75
2018-11-04T17:09:41.964Z,95.15
2018-11-04T17:12:10.999Z,95.34
2018-11-04T17:14:39.336Z,94.73
2018-11-04T17:17:07.903Z,94.89
2018-11-04T17:19:36.293Z,94.95
2018-11-04T17:22:04.667Z,95.48
2018-11-04T17:24:32.966Z,95.40
2018-11-04T17:27:01.662Z,94.99
2018-11-04T17:29:30.091Z,94.85
2018-11-04T17:31:58.507Z,94.97
2018-11-04T17:34:27.002Z,95.41
2018-11-04T17:36:55.403Z,95.50
2018-11-04T17:39:23.768Z,95.66
2018-11-04T17:41:52.091Z,94.82
2018-11-04T17:44:20.619Z,94.97
2018-11-04T17:46:49.005Z,95.45
2018-11-04T17:49:17.361Z,95.31
2018-11-04T17:51:45.958Z,96.04
2018-11-04T17:54:14.368Z,95.57
2018-11-04T17:56:42.715Z,95.90
2018-11-04T17:59:11.189Z,95.74
2018-11-04T18:01:39.510Z,96.27
2018-11-04T18:04:07.952Z,96.58
2018-11-04T18:06:36.485Z,96.19
2018-11-04T18:09:08.099Z,96.20
2018-11-04T18:11:36.594Z,96.43
2018-11-04T18:14:05.342Z,96.04
2018-11-04T18:16:33.847Z,96.50
2018-11-04T18:19:02.194Z,96.72
2018-11-04T18:21:30.792Z,96.95
2018-11-04T18:23:59.270Z,96.79
2018-11-04T18:26:27.874Z,96.28
2018-11-04T18:28:56.257Z,96.47
2018-11-04T18:31:24.606Z,96.49
2018-11-04T18:33:53.039Z,96.28
2018-11-04T18:36:21.373Z,97.10
2018-11-04T18:38:49.852Z,96.97
2018-11-04T18:41:18.244Z,96.98
2018-11-04T18:43:47.032Z,96.89
2018-11-04T18:46:15.840Z,97.00
2018-11-04T18:48:44.438Z,97.24
2018-11-04T18:51:13.024Z,96.47
2018-11-04T18:53:41.392Z,96.60
2018-11-04T18:56:09.971Z,96.54
2018-11-04T18:58:38.316Z,96.79
2018-11-04T19:01:06.940Z,96.70
2018-11-04T19:03:35.368Z,97.15
2018-11-04T19:06:03.927Z,97.04
2018-11-04T19:08:32.476Z,97.23
2018-11-04T19:11:01.101Z,97.49
2018-11-04T19:13:29.504Z,96.76
2018-11-04T19:15:58.133Z,97.90
2018-11-04T19:18:26.500Z,97.63
2018-11-04T19:20:55.061Z,97.37
2018-11-04T19:23:23.531Z,97.35
2018-11-04T19:25:52.163Z,97.33
2018-11-04T19:28:20.518Z,97.43
2018-11-04T19:30:49.044Z,97.01
2018-11-04T19:33:17.417Z,97.07
2018-11-04T19:35:45.874Z,97.03
2018-11-04T19:38:14.422Z,97.02
2018-11-04T19:40:42.754Z,97.04
2018-11-04T19:43:11.243Z,97.26
2018-11-04T19:45:39.594Z,97.26
2018-11-04T19:48:07.956Z,97.24
2018-11-04T19:50:36.333Z,97.17
2018-11-04T19:53:04.688Z,97.13
2018-11-04T19:55:33.028Z,97.29
2018-11-04T19:58:01.433Z,97.19
2018-11-04T20:00:30.583Z,97.15
2018-11-04T20:02:58.962Z,97.35
2018-11-04T20:05:27.488Z,97.41
2018-11-04T20:07:55.878Z,97.15
2018-11-04T20:10:24.256Z,96.71
2018-11-04T20:12:57.774Z,97.10
2018-11-04T20:15:26.213Z,97.30
2018-11-04T20:17:54.621Z,97.13
2018-11-04T20:20:25.545Z,97.42
2018-11-04T20:22:54.147Z,97.46
2018-11-04T20:25:28.170Z,97.32
2018-11-04T20:27:56.562Z,97.68
2018-11-04T20:30:24.881Z,97.26
2018-11-04T20:32:58.590Z,97.55
2018-11-04T20:35:26.911Z,97.33
2018-11-04T20:37:55.478Z,97.62
2018-11-04T20:40:29.166Z,97.61
2018-11-04T20:42:57.670Z,97.44
2018-11-04T20:45:26.016Z,97.78
2018-11-04T20:47:59.869Z,97.79
2018-11-04T20:50:33.647Z,97.47
2018-11-04T20:53:02.219Z,97.82
2018-11-04T20:55:35.804Z,97.73
2018-11-04T20:58:04.319Z,97.75
2018-11-04T21:00:32.727Z,98.01
2018-11-04T21:03:01.055Z,98.41
2018-11-04T21:05:29.459Z,98.42
2018-11-04T21:07:57.822Z,97.94
2018-11-04T21:10:30.088Z,98.26
2018-11-04T21:12:58.488Z,98.57
2018-11-04T21:15:26.877Z,98.58
2018-11-04T21:17:55.330Z,97.70
2018-11-04T21:20:23.754Z,97.83
2018-11-04T21:22:52.465Z,97.83
2018-11-04T21:25:20.918Z,98.02
2018-11-04T21:27:49.544Z,98.28
2018-11-04T21:30:17.773Z,98.24
2018-11-04T21:32:46.236Z,97.68
2018-11-04T21:35:14.887Z,98.28
2018-11-04T21:37:43.312Z,98.18
2018-11-04T21:40:11.710Z,98.12
2018-11-04T21:42:40.441Z,98.63
2018-11-04T21:45:10.554Z,98.53
2018-11-04T21:47:38.891Z,98.65
2018-11-04T21:50:08.260Z,98.68
2018-11-04T21:52:36.595Z,99.08
2018-11-04T21:55:05.489Z,98.29
2018-11-04T21:57:33.797Z,98.34
2018-11-04T22:00:02.105Z,98.24
2018-11-04T22:02:30.616Z,98.43
2018-11-04T22:04:58.876Z,97.67
2018-11-04T22:07:27.278Z,98.01
2018-11-04T22:09:55.626Z,98.08
2018-11-04T22:12:24.053Z,97.97
2018-11-04T22:14:52.378Z,98.13
2018-11-04T22:17:20.715Z,97.99
2018-11-04T22:19:49.194Z,98.27
2018-11-04T22:22:17.619Z,97.97
2018-11-04T22:24:45.940Z,98.26
2018-11-04T22:27:14.433Z,98.42
2018-11-04T22:29:42.874Z,97.89
2018-11-04T22:32:11.222Z,98.62
2018-11-04T22:34:39.575Z,98.19
2018-11-04T22:37:08.016Z,98.74
2018-11-04T22:39:36.620Z,98.74
2018-11-04T22:42:05.345Z,98.88
2018-11-04T22:44:33.694Z,98.88
2018-11-04T22:47:02.065Z,98.30
2018-11-04T22:49:30.487Z,98.68
2018-11-04T22:51:58.859Z,98.45
2018-11-04T22:54:27.454Z,98.63
2018-11-04T22:56:55.811Z,98.69
2018-11-04T22:59:24.136Z,98.04
2018-11-04T23:01:52.637Z,98.38
2018-11-04T23:04:27.082Z,98.22
2018-11-04T23:06:55.458Z,97.82
2018-11-04T23:09:24.026Z,98.31
2018-11-04T23:11:52.443Z,97.94
2018-11-04T23:14:20.773Z,98.16
2018-11-04T23:16:49.351Z,98.05
2018-11-04T23:19:17.715Z,98.33
2018-11-04T23:21:46.039Z,98.07
2018-11-04T23:24:14.383Z,98.69
2018-11-04T23:26:42.703Z,98.29
2018-11-04T23:29:11.049Z,98.60
2018-11-04T23:31:39.394Z,98.39
2018-11-04T23:34:07.724Z,98.68
2018-11-04T23:36:36.119Z,97.97
2018-11-04T23:39:05.729Z,98.17
2018-11-04T23:41:34.251Z,98.25
2018-11-04T23:44:02.607Z,98.39
2018-11-04T23:46:31.118Z,98.20
2018-11-04T23:48:59.430Z,98.50
2018-11-04T23:51:27.731Z,98.73
2018-11-04T23:53:56.201Z,98.23
2018-11-04T23:56:24.523Z,97.75
2018-11-04T23:58:52.859Z,97.98
